Terminal Aerodrome Forecast
Issued by NWS

Home | Current Version | Previous Version | Text Only | Print | Product List | Glossary On
Versions: 1 2 3 4 5 6 7 8 9 10 11 12 13 14 15 16 17 18 19 20
000
FTUS42 KTBW 130500
TAFPIE
TAF
KPIE 130530Z 1306/1406 10006KT P6SM FEW100 SCT250
     FM131400 04006KT P6SM FEW025 SCT250
     FM131800 30008KT P6SM VCTS SCT030CB BKN250
     FM140000 27007KT P6SM VCTS SCT035CB BKN070
     FM140300 VRB05KT P6SM SCT040 BKN250=

USA.gov is the U.S. government's official web portal to all federal, state and local government web resources and services.